• Join FlightAware (Why Join?)
  • Login
  • US Flag 
05:38PM EDT


 

Airport Tracker/Info


-or-


 

Live Flight TrackerFlight Track Log ✈ ASQ4209 ✈ 17-Jun-2013 ✈ KBTR - KIAH

Flight Track Log - Related Links

Times and Time Zones

All times are in EDT time to prevent confusion due to time zone crossing. See the ASQ4209 flight status page for this flight to view local times or setup timezone preferences in your user account.

Time Position Orientation Groundspeed Altitude Reporting Facility
EDT Latitude Longitude Course Direction KTS MPH feet Rate Location/Type
02:43PM 30.4783 -91.2128 228° Southwest 202 232 3,000  Level Houston Center
02:44PM 30.4275 -91.2642 221° Southwest 226 260 5,100 2,160 Climbing Houston Center
02:45PM 30.4626 -91.5038 263° West  Level FlightAware Approximate
02:45PM 30.3758 -91.3211 224° Southwest 249 287 7,500  Level Houston Center
02:46PM 30.4518 -91.6006 263° West  Level FlightAware Approximate
02:46PM 30.3225 -91.4025 233° Southwest 267 307 10,000  Level Houston Center
02:47PM 30.4264 -91.6920 227° Southwest  Level FlightAware Approximate
02:47PM 30.2775 -91.4892 239° Southwest 307 353 10,700  Level Houston Center
02:48PM 30.2331 -91.5842 242° Southwest 332 382 12,200 1,440 Climbing Houston Center
02:49PM 30.1858 -91.6794 240° Southwest 341 392 13,700 1,320 Climbing Houston Center
02:50PM 30.1392 -91.7719 240° Southwest 342 394 15,000 1,260 Climbing Houston Center
02:51PM 30.0806 -91.8886 240° Southwest 348 400 16,400 1,200 Climbing Houston Center
02:52PM 30.0314 -91.9878 240° Southwest 355 409 17,600 960 Climbing Houston Center
02:53PM 29.9828 -92.0867 240° Southwest 355 409 18,500 900 Climbing Houston Center
02:54PM 29.9319 -92.1894 240° Southwest 364 419 19,500 720 Climbing Houston Center
02:55PM 29.8794 -92.2950 240° Southwest 376 433 20,000 240 Climbing Houston Center
02:56PM 29.8239 -92.4069 240° Southwest 397 457 20,000  Level Houston Center
02:57PM 29.7539 -92.5456 240° Southwest 413 475 20,000  Level Houston Center
02:58PM 29.6958 -92.6614 240° Southwest 417 480 20,000  Level Houston Center
02:59PM 29.6375 -92.7744 239° Southwest 413 475 20,000  Level Houston Center
03:01PM 29.5819 -92.8861 240° Southwest 405 466 20,000  Level Houston Center
03:02PM 29.5247 -92.9972 239° Southwest 402 463 20,000  Level Houston Center
03:03PM 29.4872 -93.1186 250° West 411 473 20,000  Level Houston Center
03:04PM 29.4931 -93.2725 273° West 405 466 20,000  Level Houston Center
03:05PM 29.4975 -93.3983 272° West 399 459 20,000  Level Houston Center
03:06PM 29.5031 -93.5278 273° West 403 464 20,000  Level Houston Center
03:07PM 29.5081 -93.6581 273° West 406 467 20,000  Level Houston Center
03:08PM 29.5131 -93.7897 273° West 413 475 20,000 -300 Level Houston Center
03:09PM 29.5183 -93.9231 273° West 416 479 19,500 -1,260 Descending Houston Center
03:10PM 29.5231 -94.0519 272° West 406 467 17,400 -2,340 Descending Houston Center
03:10PM 29.5258 -94.1131 273° West 396 456 16,400 -2,400 Descending Houston Center
03:11PM 29.5281 -94.1958 272° West 387 445 14,900 -2,160 Descending Houston Center
03:11PM 29.5289 -94.2497 271° West 378 435 14,000 -1,680 Descending Houston Center
03:12PM 29.5325 -94.3117 274° West 368 423 13,200 -1,200 Descending Houston Center
03:12PM 29.5403 -94.3636 280° West 336 387 12,800 -1,020 Descending Houston Center
03:13PM 29.5611 -94.4083 298° West 330 380 12,200 -1,620 Descending Houston Center
03:13PM 29.5786 -94.4522 295° West 305 351 11,200 -1,800 Descending Houston Center
03:14PM 29.5975 -94.4939 298° West 301 346 10,400 -1,800 Descending Houston Center
03:14PM 29.6261 -94.5303 312° West 294 338 9,400 -2,160 Descending Houston Center
03:15PM 29.6644 -94.5717 317° Northwest 286 329 8,200 -1,800 Descending Houston Center
03:15PM 29.6847 -94.5925 318° Northwest 278 320 7,600 -1,560 Descending Houston Center
03:16PM 29.7181 -94.6303 315° West 270 311 6,600 -1,380 Descending Houston Center
03:16PM 29.7369 -94.6533 313° West 258 297 6,200 -780 Descending Houston Center
03:17PM 29.7706 -94.6883 318° Northwest 263 303 5,800 -720 Descending Houston Center
03:17PM 29.7886 -94.7094 315° West 261 300 5,500 -960 Descending Houston Center
03:18PM 29.8228 -94.7453 318° Northwest 262 302 4,800 -1,140 Descending Houston Center
03:18PM 29.8425 -94.7678 315° West 261 300 4,400 -1,020 Descending Houston Center
03:19PM 29.8758 -94.8019 318° Northwest 262 302 3,800 -1,020 Descending Houston Center
03:19PM 29.8964 -94.8258 315° West 251 289 3,400 -780 Descending Houston Center
03:20PM 29.9278 -94.8736 307° West 250 288 3,000 -420 Descending Houston Center
03:20PM 29.9361 -94.8886 303° West 221 254 3,000 60 Level Houston Center
03:21PM 29.9622 -94.9319 305° West 230 265 3,100 -420 Climbing Houston Center
03:22PM 29.9778 -95.0183 282° West 221 254 2,200 -540 Descending Houston Center
03:23PM 29.9778 -95.0681 270° West 222 255 2,100 -60 Descending Houston Center
03:24PM 29.9781 -95.1389 270° West 222 255 2,100  Level Houston Center